sensor_id;sensor_type;location;lat;lon;timestamp;temperature;humidity
23719;DHT22;43322;52.230;5.702;2024-01-30T00:00:27;8.00;99.90
23719;DHT22;43322;52.230;5.702;2024-01-30T00:02:54;7.90;99.90
23719;DHT22;43322;52.230;5.702;2024-01-30T00:05:22;7.90;99.90
23719;DHT22;43322;52.230;5.702;2024-01-30T00:07:49;7.80;99.90
23719;DHT22;43322;52.230;5.702;2024-01-30T00:10:16;7.80;99.90
23719;DHT22;43322;52.230;5.702;2024-01-30T00:12:43;7.70;99.90
23719;DHT22;43322;52.230;5.702;2024-01-30T00:15:10;8.00;99.90
23719;DHT22;43322;52.230;5.702;2024-01-30T00:17:37;7.70;99.90
23719;DHT22;43322;52.230;5.702;2024-01-30T00:20:04;7.70;99.90
23719;DHT22;43322;52.230;5.702;2024-01-30T00:22:34;7.60;99.90
23719;DHT22;43322;52.230;5.702;2024-01-30T00:25:00;7.70;99.90
23719;DHT22;43322;52.230;5.702;2024-01-30T00:27:27;7.70;99.90
23719;DHT22;43322;52.230;5.702;2024-01-30T00:29:54;7.60;99.90
23719;DHT22;43322;52.230;5.702;2024-01-30T00:32:21;7.50;99.90
23719;DHT22;43322;52.230;5.702;2024-01-30T00:34:48;7.80;99.90
23719;DHT22;43322;52.230;5.702;2024-01-30T00:37:15;7.60;99.90
23719;DHT22;43322;52.230;5.702;2024-01-30T00:39:43;7.70;99.90
23719;DHT22;43322;52.230;5.702;2024-01-30T00:42:10;7.80;99.90
23719;DHT22;43322;52.230;5.702;2024-01-30T00:44:37;7.50;99.90
23719;DHT22;43322;52.230;5.702;2024-01-30T00:47:04;7.50;99.90
23719;DHT22;43322;52.230;5.702;2024-01-30T00:49:31;7.30;99.90
23719;DHT22;43322;52.230;5.702;2024-01-30T00:51:58;7.40;99.90
23719;DHT22;43322;52.230;5.702;2024-01-30T00:54:25;7.50;99.90
23719;DHT22;43322;52.230;5.702;2024-01-30T00:56:53;7.40;99.90
23719;DHT22;43322;52.230;5.702;2024-01-30T00:59:19;7.30;99.90
23719;DHT22;43322;52.230;5.702;2024-01-30T01:01:46;7.10;99.90
23719;DHT22;43322;52.230;5.702;2024-01-30T01:04:13;7.20;99.90
23719;DHT22;43322;52.230;5.702;2024-01-30T01:06:40;7.20;99.90
23719;DHT22;43322;52.230;5.702;2024-01-30T01:09:09;7.50;99.90
23719;DHT22;43322;52.230;5.702;2024-01-30T01:11:36;7.30;99.90
23719;DHT22;43322;52.230;5.702;2024-01-30T01:14:05;7.10;99.90
23719;DHT22;43322;52.230;5.702;2024-01-30T01:16:32;7.10;99.90
23719;DHT22;43322;52.230;5.702;2024-01-30T01:18:59;7.20;99.90
23719;DHT22;43322;52.230;5.702;2024-01-30T01:21:26;7.10;99.90
23719;DHT22;43322;52.230;5.702;2024-01-30T01:23:53;7.00;99.90
23719;DHT22;43322;52.230;5.702;2024-01-30T01:26:19;7.30;99.90
23719;DHT22;43322;52.230;5.702;2024-01-30T01:28:46;7.10;99.90
23719;DHT22;43322;52.230;5.702;2024-01-30T01:31:15;7.00;99.90
23719;DHT22;43322;52.230;5.702;2024-01-30T01:33:43;6.90;99.90
23719;DHT22;43322;52.230;5.702;2024-01-30T01:36:09;7.00;99.90
23719;DHT22;43322;52.230;5.702;2024-01-30T01:38:36;6.80;99.90
23719;DHT22;43322;52.230;5.702;2024-01-30T01:41:03;6.90;99.90
23719;DHT22;43322;52.230;5.702;2024-01-30T01:43:30;7.00;99.90
23719;DHT22;43322;52.230;5.702;2024-01-30T01:45:57;6.90;99.90
23719;DHT22;43322;52.230;5.702;2024-01-30T01:48:26;6.80;99.90
23719;DHT22;43322;52.230;5.702;2024-01-30T01:50:53;6.60;99.90
23719;DHT22;43322;52.230;5.702;2024-01-30T01:53:19;6.90;99.90
23719;DHT22;43322;52.230;5.702;2024-01-30T01:55:47;6.80;99.90
23719;DHT22;43322;52.230;5.702;2024-01-30T01:58:14;6.80;99.90
23719;DHT22;43322;52.230;5.702;2024-01-30T02:00:41;6.70;99.90
23719;DHT22;43322;52.230;5.702;2024-01-30T02:03:10;6.70;99.90
23719;DHT22;43322;52.230;5.702;2024-01-30T02:05:39;6.70;99.90
23719;DHT22;43322;52.230;5.702;2024-01-30T02:08:08;6.80;99.90
23719;DHT22;43322;52.230;5.702;2024-01-30T02:10:35;6.70;99.90
23719;DHT22;43322;52.230;5.702;2024-01-30T02:13:02;6.90;99.90
23719;DHT22;43322;52.230;5.702;2024-01-30T02:15:30;6.70;99.90
23719;DHT22;43322;52.230;5.702;2024-01-30T02:17:57;6.80;99.90
23719;DHT22;43322;52.230;5.702;2024-01-30T02:20:25;6.50;99.90
23719;DHT22;43322;52.230;5.702;2024-01-30T02:22:56;6.60;99.90
23719;DHT22;43322;52.230;5.702;2024-01-30T02:25:31;6.60;99.90
23719;DHT22;43322;52.230;5.702;2024-01-30T02:27:58;6.70;99.90
23719;DHT22;43322;52.230;5.702;2024-01-30T02:30:24;6.50;99.90
23719;DHT22;43322;52.230;5.702;2024-01-30T02:32:51;6.60;99.90
23719;DHT22;43322;52.230;5.702;2024-01-30T02:35:18;6.80;99.90
23719;DHT22;43322;52.230;5.702;2024-01-30T02:37:45;6.60;99.90
23719;DHT22;43322;52.230;5.702;2024-01-30T02:40:13;6.50;99.90
23719;DHT22;43322;52.230;5.702;2024-01-30T02:42:40;6.70;99.90
23719;DHT22;43322;52.230;5.702;2024-01-30T02:45:08;6.60;99.90
23719;DHT22;43322;52.230;5.702;2024-01-30T02:47:35;6.50;99.90
23719;DHT22;43322;52.230;5.702;2024-01-30T02:50:03;6.60;99.90
23719;DHT22;43322;52.230;5.702;2024-01-30T02:52:29;6.40;99.90
23719;DHT22;43322;52.230;5.702;2024-01-30T02:54:56;6.60;99.90
23719;DHT22;43322;52.230;5.702;2024-01-30T02:57:24;6.60;99.90
23719;DHT22;43322;52.230;5.702;2024-01-30T02:59:51;6.70;99.90
23719;DHT22;43322;52.230;5.702;2024-01-30T03:02:18;6.60;99.90
23719;DHT22;43322;52.230;5.702;2024-01-30T03:04:45;6.70;99.90
23719;DHT22;43322;52.230;5.702;2024-01-30T03:07:12;6.70;99.90
23719;DHT22;43322;52.230;5.702;2024-01-30T03:09:41;6.70;99.90
23719;DHT22;43322;52.230;5.702;2024-01-30T03:12:08;7.00;99.90
23719;DHT22;43322;52.230;5.702;2024-01-30T03:14:36;6.90;99.90
23719;DHT22;43322;52.230;5.702;2024-01-30T03:17:03;6.70;99.90
23719;DHT22;43322;52.230;5.702;2024-01-30T03:19:30;6.70;99.90
23719;DHT22;43322;52.230;5.702;2024-01-30T03:21:56;6.80;99.90
23719;DHT22;43322;52.230;5.702;2024-01-30T03:24:23;6.80;99.90
23719;DHT22;43322;52.230;5.702;2024-01-30T03:26:50;6.80;99.90
23719;DHT22;43322;52.230;5.702;2024-01-30T03:29:17;6.80;99.90
23719;DHT22;43322;52.230;5.702;2024-01-30T03:31:45;7.00;99.90
23719;DHT22;43322;52.230;5.702;2024-01-30T03:34:12;6.90;99.90
23719;DHT22;43322;52.230;5.702;2024-01-30T03:36:39;6.60;99.90
23719;DHT22;43322;52.230;5.702;2024-01-30T03:39:06;7.00;99.90
23719;DHT22;43322;52.230;5.702;2024-01-30T03:41:32;7.00;99.90
23719;DHT22;43322;52.230;5.702;2024-01-30T03:43:59;7.10;99.90
23719;DHT22;43322;52.230;5.702;2024-01-30T03:46:26;7.10;99.90
23719;DHT22;43322;52.230;5.702;2024-01-30T03:48:54;7.10;99.90
23719;DHT22;43322;52.230;5.702;2024-01-30T03:51:21;7.00;99.90
23719;DHT22;43322;52.230;5.702;2024-01-30T03:53:48;7.30;99.90
23719;DHT22;43322;52.230;5.702;2024-01-30T03:56:15;7.00;99.90
23719;DHT22;43322;52.230;5.702;2024-01-30T03:58:42;6.70;99.90
23719;DHT22;43322;52.230;5.702;2024-01-30T04:01:13;7.20;99.90
23719;DHT22;43322;52.230;5.702;2024-01-30T04:03:40;7.20;99.90
23719;DHT22;43322;52.230;5.702;2024-01-30T04:06:08;7.00;99.90
23719;DHT22;43322;52.230;5.702;2024-01-30T04:08:35;7.00;99.90
23719;DHT22;43322;52.230;5.702;2024-01-30T04:11:04;7.00;99.90
23719;DHT22;43322;52.230;5.702;2024-01-30T04:13:32;7.10;99.90
23719;DHT22;43322;52.230;5.702;2024-01-30T04:15:59;7.40;99.90
23719;DHT22;43322;52.230;5.702;2024-01-30T04:18:26;7.10;99.90
23719;DHT22;43322;52.230;5.702;2024-01-30T04:20:53;7.10;99.90
23719;DHT22;43322;52.230;5.702;2024-01-30T04:23:22;6.80;99.90
23719;DHT22;43322;52.230;5.702;2024-01-30T04:25:49;7.10;99.90
23719;DHT22;43322;52.230;5.702;2024-01-30T04:28:16;7.10;99.90
23719;DHT22;43322;52.230;5.702;2024-01-30T04:30:42;7.10;99.90
23719;DHT22;43322;52.230;5.702;2024-01-30T04:33:10;7.10;99.90
23719;DHT22;43322;52.230;5.702;2024-01-30T04:35:37;8.20;99.90
23719;DHT22;43322;52.230;5.702;2024-01-30T04:38:05;7.20;99.90
23719;DHT22;43322;52.230;5.702;2024-01-30T04:40:33;7.20;99.90
23719;DHT22;43322;52.230;5.702;2024-01-30T04:43:00;7.30;99.90
23719;DHT22;43322;52.230;5.702;2024-01-30T04:45:27;7.20;99.90
23719;DHT22;43322;52.230;5.702;2024-01-30T04:47:54;7.20;99.90
23719;DHT22;43322;52.230;5.702;2024-01-30T04:50:20;7.10;99.90
23719;DHT22;43322;52.230;5.702;2024-01-30T04:52:47;7.40;99.90
23719;DHT22;43322;52.230;5.702;2024-01-30T04:55:14;7.20;99.90
23719;DHT22;43322;52.230;5.702;2024-01-30T04:57:42;7.40;99.90
23719;DHT22;43322;52.230;5.702;2024-01-30T05:00:10;7.20;99.90
23719;DHT22;43322;52.230;5.702;2024-01-30T05:02:37;7.10;99.90
23719;DHT22;43322;52.230;5.702;2024-01-30T05:05:04;7.20;99.90
23719;DHT22;43322;52.230;5.702;2024-01-30T05:07:31;7.10;99.90
23719;DHT22;43322;52.230;5.702;2024-01-30T05:09:58;7.40;99.90
23719;DHT22;43322;52.230;5.702;2024-01-30T05:12:25;7.20;99.90
23719;DHT22;43322;52.230;5.702;2024-01-30T05:14:53;7.20;99.90
23719;DHT22;43322;52.230;5.702;2024-01-30T05:17:20;7.40;99.90
23719;DHT22;43322;52.230;5.702;2024-01-30T05:19:47;7.40;99.90
23719;DHT22;43322;52.230;5.702;2024-01-30T05:22:13;7.30;99.90
23719;DHT22;43322;52.230;5.702;2024-01-30T05:24:41;7.20;99.90
23719;DHT22;43322;52.230;5.702;2024-01-30T05:27:08;7.40;99.90
23719;DHT22;43322;52.230;5.702;2024-01-30T05:29:35;7.30;99.90
23719;DHT22;43322;52.230;5.702;2024-01-30T05:32:04;7.40;99.90
23719;DHT22;43322;52.230;5.702;2024-01-30T05:34:31;7.60;99.90
23719;DHT22;43322;52.230;5.702;2024-01-30T05:36:58;7.40;99.90
23719;DHT22;43322;52.230;5.702;2024-01-30T05:39:25;7.30;99.90
23719;DHT22;43322;52.230;5.702;2024-01-30T05:41:52;7.30;99.90
23719;DHT22;43322;52.230;5.702;2024-01-30T05:44:19;7.40;99.90
23719;DHT22;43322;52.230;5.702;2024-01-30T05:46:46;7.50;99.90
23719;DHT22;43322;52.230;5.702;2024-01-30T05:49:14;7.50;99.90
23719;DHT22;43322;52.230;5.702;2024-01-30T05:51:40;7.50;99.90
23719;DHT22;43322;52.230;5.702;2024-01-30T05:54:07;7.40;99.90
23719;DHT22;43322;52.230;5.702;2024-01-30T05:56:34;6.60;99.90
23719;DHT22;43322;52.230;5.702;2024-01-30T05:59:01;7.50;99.90
23719;DHT22;43322;52.230;5.702;2024-01-30T06:01:27;7.60;99.90
23719;DHT22;43322;52.230;5.702;2024-01-30T06:03:54;7.40;99.90
23719;DHT22;43322;52.230;5.702;2024-01-30T06:06:23;7.60;99.90
23719;DHT22;43322;52.230;5.702;2024-01-30T06:08:50;7.70;99.90
23719;DHT22;43322;52.230;5.702;2024-01-30T06:11:16;7.50;99.90
23719;DHT22;43322;52.230;5.702;2024-01-30T06:13:43;7.60;99.90
23719;DHT22;43322;52.230;5.702;2024-01-30T06:16:10;7.70;99.90
23719;DHT22;43322;52.230;5.702;2024-01-30T06:18:38;7.70;99.90
23719;DHT22;43322;52.230;5.702;2024-01-30T06:21:05;7.60;99.90
23719;DHT22;43322;52.230;5.702;2024-01-30T06:23:33;7.70;99.90
23719;DHT22;43322;52.230;5.702;2024-01-30T06:26:00;7.70;99.90
23719;DHT22;43322;52.230;5.702;2024-01-30T06:28:27;7.80;99.90
23719;DHT22;43322;52.230;5.702;2024-01-30T06:30:53;7.80;99.90
23719;DHT22;43322;52.230;5.702;2024-01-30T06:33:20;8.00;91.50
23719;DHT22;43322;52.230;5.702;2024-01-30T06:35:47;8.00;83.20
23719;DHT22;43322;52.230;5.702;2024-01-30T06:38:14;7.90;90.80
23719;DHT22;43322;52.230;5.702;2024-01-30T06:40:42;8.00;87.80
23719;DHT22;43322;52.230;5.702;2024-01-30T06:43:09;8.00;62.70
23719;DHT22;43322;52.230;5.702;2024-01-30T06:45:36;7.90;69.40
23719;DHT22;43322;52.230;5.702;2024-01-30T06:48:04;8.00;59.00
23719;DHT22;43322;52.230;5.702;2024-01-30T06:50:31;7.80;53.80
23719;DHT22;43322;52.230;5.702;2024-01-30T06:52:57;7.90;64.80
23719;DHT22;43322;52.230;5.702;2024-01-30T06:55:24;7.90;70.10
23719;DHT22;43322;52.230;5.702;2024-01-30T06:57:52;8.30;82.10
23719;DHT22;43322;52.230;5.702;2024-01-30T07:00:19;8.00;73.60
23719;DHT22;43322;52.230;5.702;2024-01-30T07:02:47;7.90;73.20
23719;DHT22;43322;52.230;5.702;2024-01-30T07:05:14;8.10;69.20
23719;DHT22;43322;52.230;5.702;2024-01-30T07:07:41;8.00;64.70
23719;DHT22;43322;52.230;5.702;2024-01-30T07:10:08;8.20;69.30
23719;DHT22;43322;52.230;5.702;2024-01-30T07:12:35;8.00;55.40
23719;DHT22;43322;52.230;5.702;2024-01-30T07:15:04;8.30;57.60
23719;DHT22;43322;52.230;5.702;2024-01-30T07:17:33;7.90;55.90
23719;DHT22;43322;52.230;5.702;2024-01-30T07:20:00;8.10;68.40
23719;DHT22;43322;52.230;5.702;2024-01-30T07:22:28;8.10;64.40
23719;DHT22;43322;52.230;5.702;2024-01-30T07:24:55;8.10;63.80
23719;DHT22;43322;52.230;5.702;2024-01-30T07:27:21;8.20;74.70
23719;DHT22;43322;52.230;5.702;2024-01-30T07:29:48;8.20;66.90
23719;DHT22;43322;52.230;5.702;2024-01-30T07:32:16;8.70;72.90
23719;DHT22;43322;52.230;5.702;2024-01-30T07:34:44;8.30;65.80
23719;DHT22;43322;52.230;5.702;2024-01-30T07:37:10;8.30;41.20
23719;DHT22;43322;52.230;5.702;2024-01-30T07:39:41;9.00;36.50
23719;DHT22;43322;52.230;5.702;2024-01-30T07:42:07;8.30;36.00
23719;DHT22;43322;52.230;5.702;2024-01-30T07:44:34;8.20;37.00
23719;DHT22;43322;52.230;5.702;2024-01-30T07:47:01;8.30;39.80
23719;DHT22;43322;52.230;5.702;2024-01-30T07:49:29;8.40;26.90
23719;DHT22;43322;52.230;5.702;2024-01-30T07:51:56;8.30;38.10
23719;DHT22;43322;52.230;5.702;2024-01-30T07:54:23;8.40;17.60
23719;DHT22;43322;52.230;5.702;2024-01-30T07:56:50;8.60;18.70
23719;DHT22;43322;52.230;5.702;2024-01-30T07:59:16;8.70;4.20
23719;DHT22;43322;52.230;5.702;2024-01-30T08:01:45;8.70;1.00
23719;DHT22;43322;52.230;5.702;2024-01-30T08:04:30;8.60;4.40
23719;DHT22;43322;52.230;5.702;2024-01-30T08:06:56;8.50;12.50
23719;DHT22;43322;52.230;5.702;2024-01-30T08:09:23;8.60;14.70
23719;DHT22;43322;52.230;5.702;2024-01-30T08:11:50;8.60;11.00
23719;DHT22;43322;52.230;5.702;2024-01-30T08:14:17;8.70;13.10
23719;DHT22;43322;52.230;5.702;2024-01-30T08:16:43;8.80;1.00
23719;DHT22;43322;52.230;5.702;2024-01-30T08:19:10;8.80;1.00
23719;DHT22;43322;52.230;5.702;2024-01-30T08:21:39;8.80;1.00
23719;DHT22;43322;52.230;5.702;2024-01-30T08:24:07;8.80;1.00
23719;DHT22;43322;52.230;5.702;2024-01-30T08:26:33;8.70;1.00
23719;DHT22;43322;52.230;5.702;2024-01-30T08:29:01;8.80;1.00
23719;DHT22;43322;52.230;5.702;2024-01-30T08:31:28;8.70;1.00
23719;DHT22;43322;52.230;5.702;2024-01-30T08:33:55;9.00;1.00
23719;DHT22;43322;52.230;5.702;2024-01-30T08:36:22;9.00;1.00
23719;DHT22;43322;52.230;5.702;2024-01-30T08:38:50;9.00;1.00
23719;DHT22;43322;52.230;5.702;2024-01-30T08:41:17;9.00;1.00
23719;DHT22;43322;52.230;5.702;2024-01-30T08:43:44;9.10;1.00
23719;DHT22;43322;52.230;5.702;2024-01-30T08:46:11;9.20;1.00
23719;DHT22;43322;52.230;5.702;2024-01-30T08:48:38;9.20;1.00
23719;DHT22;43322;52.230;5.702;2024-01-30T08:51:05;9.20;1.00
23719;DHT22;43322;52.230;5.702;2024-01-30T08:53:34;9.20;1.00
23719;DHT22;43322;52.230;5.702;2024-01-30T08:56:03;9.10;1.00
23719;DHT22;43322;52.230;5.702;2024-01-30T08:58:30;9.10;1.00
23719;DHT22;43322;52.230;5.702;2024-01-30T09:00:57;9.20;1.00
23719;DHT22;43322;52.230;5.702;2024-01-30T09:03:23;9.30;1.00
23719;DHT22;43322;52.230;5.702;2024-01-30T09:05:50;9.40;1.00
23719;DHT22;43322;52.230;5.702;2024-01-30T09:08:17;9.40;1.00
23719;DHT22;43322;52.230;5.702;2024-01-30T09:10:44;9.50;1.00
23719;DHT22;43322;52.230;5.702;2024-01-30T09:13:12;9.40;1.00
23719;DHT22;43322;52.230;5.702;2024-01-30T09:15:39;9.40;1.00
23719;DHT22;43322;52.230;5.702;2024-01-30T09:18:06;9.90;1.00
23719;DHT22;43322;52.230;5.702;2024-01-30T09:20:33;9.40;1.00
23719;DHT22;43322;52.230;5.702;2024-01-30T09:23:00;9.50;1.00
23719;DHT22;43322;52.230;5.702;2024-01-30T09:25:26;9.60;1.00
23719;DHT22;43322;52.230;5.702;2024-01-30T09:27:53;9.60;1.00
23719;DHT22;43322;52.230;5.702;2024-01-30T09:30:21;9.70;1.00
23719;DHT22;43322;52.230;5.702;2024-01-30T09:32:48;9.70;1.00
23719;DHT22;43322;52.230;5.702;2024-01-30T09:35:15;9.80;1.00
23719;DHT22;43322;52.230;5.702;2024-01-30T09:37:42;9.90;1.00
23719;DHT22;43322;52.230;5.702;2024-01-30T09:40:09;10.00;1.00
23719;DHT22;43322;52.230;5.702;2024-01-30T09:42:36;10.00;1.00
23719;DHT22;43322;52.230;5.702;2024-01-30T09:45:03;10.20;1.00
23719;DHT22;43322;52.230;5.702;2024-01-30T09:47:33;10.10;1.00
23719;DHT22;43322;52.230;5.702;2024-01-30T09:50:07;10.20;1.00
23719;DHT22;43322;52.230;5.702;2024-01-30T09:52:34;10.00;1.00
23719;DHT22;43322;52.230;5.702;2024-01-30T09:55:01;10.10;1.00
23719;DHT22;43322;52.230;5.702;2024-01-30T09:57:28;10.10;1.00
23719;DHT22;43322;52.230;5.702;2024-01-30T09:59:55;10.20;1.00
23719;DHT22;43322;52.230;5.702;2024-01-30T10:02:22;10.20;1.00
23719;DHT22;43322;52.230;5.702;2024-01-30T10:04:51;10.10;1.00
23719;DHT22;43322;52.230;5.702;2024-01-30T10:07:19;10.20;1.00
23719;DHT22;43322;52.230;5.702;2024-01-30T10:09:46;10.10;1.00
23719;DHT22;43322;52.230;5.702;2024-01-30T10:12:13;10.20;1.00
23719;DHT22;43322;52.230;5.702;2024-01-30T10:14:40;10.20;1.00
23719;DHT22;43322;52.230;5.702;2024-01-30T10:17:08;10.20;1.00
23719;DHT22;43322;52.230;5.702;2024-01-30T10:19:35;10.20;1.00
23719;DHT22;43322;52.230;5.702;2024-01-30T10:22:03;10.20;1.00
23719;DHT22;43322;52.230;5.702;2024-01-30T10:24:31;10.20;1.00
23719;DHT22;43322;52.230;5.702;2024-01-30T10:26:58;10.40;1.00
23719;DHT22;43322;52.230;5.702;2024-01-30T10:29:25;10.40;1.00
23719;DHT22;43322;52.230;5.702;2024-01-30T10:31:58;10.60;1.00
23719;DHT22;43322;52.230;5.702;2024-01-30T10:34:26;10.60;1.00
23719;DHT22;43322;52.230;5.702;2024-01-30T10:36:59;10.60;1.00
23719;DHT22;43322;52.230;5.702;2024-01-30T10:39:29;10.60;1.00
23719;DHT22;43322;52.230;5.702;2024-01-30T10:42:01;10.80;1.00
23719;DHT22;43322;52.230;5.702;2024-01-30T10:44:30;10.90;1.00
23719;DHT22;43322;52.230;5.702;2024-01-30T10:47:04;10.90;1.00
23719;DHT22;43322;52.230;5.702;2024-01-30T10:49:33;10.90;1.00
23719;DHT22;43322;52.230;5.702;2024-01-30T10:52:01;11.10;1.00
23719;DHT22;43322;52.230;5.702;2024-01-30T10:54:29;11.30;1.00
23719;DHT22;43322;52.230;5.702;2024-01-30T10:56:58;11.80;1.00
23719;DHT22;43322;52.230;5.702;2024-01-30T10:59:27;11.30;1.00
23719;DHT22;43322;52.230;5.702;2024-01-30T11:01:56;11.30;1.00
23719;DHT22;43322;52.230;5.702;2024-01-30T11:04:23;11.20;1.00
23719;DHT22;43322;52.230;5.702;2024-01-30T11:06:51;11.40;1.00
23719;DHT22;43322;52.230;5.702;2024-01-30T11:09:18;11.40;1.00
23719;DHT22;43322;52.230;5.702;2024-01-30T11:11:51;11.40;1.00
23719;DHT22;43322;52.230;5.702;2024-01-30T11:14:23;11.30;1.00
23719;DHT22;43322;52.230;5.702;2024-01-30T11:16:50;11.30;1.00
23719;DHT22;43322;52.230;5.702;2024-01-30T11:19:22;11.30;1.00
23719;DHT22;43322;52.230;5.702;2024-01-30T11:21:50;11.30;1.00
23719;DHT22;43322;52.230;5.702;2024-01-30T11:24:19;11.30;1.00
23719;DHT22;43322;52.230;5.702;2024-01-30T11:26:48;11.40;1.00
23719;DHT22;43322;52.230;5.702;2024-01-30T11:29:17;11.50;1.00
23719;DHT22;43322;52.230;5.702;2024-01-30T11:31:52;11.40;1.00
23719;DHT22;43322;52.230;5.702;2024-01-30T11:34:19;11.50;1.00
23719;DHT22;43322;52.230;5.702;2024-01-30T11:36:51;11.50;1.00
23719;DHT22;43322;52.230;5.702;2024-01-30T11:39:20;11.50;99.90
23719;DHT22;43322;52.230;5.702;2024-01-30T11:41:49;11.60;99.90
23719;DHT22;43322;52.230;5.702;2024-01-30T11:44:18;11.70;99.90
23719;DHT22;43322;52.230;5.702;2024-01-30T11:46:46;11.60;99.90
23719;DHT22;43322;52.230;5.702;2024-01-30T11:49:13;11.70;1.00
23719;DHT22;43322;52.230;5.702;2024-01-30T11:51:41;11.60;99.90
23719;DHT22;43322;52.230;5.702;2024-01-30T11:54:08;11.60;99.90
23719;DHT22;43322;52.230;5.702;2024-01-30T11:56:34;11.50;99.90
23719;DHT22;43322;52.230;5.702;2024-01-30T11:59:03;11.50;99.90
23719;DHT22;43322;52.230;5.702;2024-01-30T12:01:31;11.40;99.90
23719;DHT22;43322;52.230;5.702;2024-01-30T12:03:58;11.30;99.90
23719;DHT22;43322;52.230;5.702;2024-01-30T12:06:25;11.20;99.90
23719;DHT22;43322;52.230;5.702;2024-01-30T12:08:59;11.30;99.90
23719;DHT22;43322;52.230;5.702;2024-01-30T12:11:26;11.30;99.90
23719;DHT22;43322;52.230;5.702;2024-01-30T12:13:56;11.20;99.90
23719;DHT22;43322;52.230;5.702;2024-01-30T12:16:23;11.20;99.90
23719;DHT22;43322;52.230;5.702;2024-01-30T12:18:59;11.10;99.90
23719;DHT22;43322;52.230;5.702;2024-01-30T12:21:26;11.10;99.90
23719;DHT22;43322;52.230;5.702;2024-01-30T12:23:53;11.10;99.90
23719;DHT22;43322;52.230;5.702;2024-01-30T12:26:20;11.10;99.90
23719;DHT22;43322;52.230;5.702;2024-01-30T12:28:48;11.00;99.90
23719;DHT22;43322;52.230;5.702;2024-01-30T12:31:15;10.90;99.90
23719;DHT22;43322;52.230;5.702;2024-01-30T12:33:42;10.80;99.90
23719;DHT22;43322;52.230;5.702;2024-01-30T12:36:11;10.70;99.90
23719;DHT22;43322;52.230;5.702;2024-01-30T12:38:38;10.60;99.90
23719;DHT22;43322;52.230;5.702;2024-01-30T12:41:07;9.60;99.90
23719;DHT22;43322;52.230;5.702;2024-01-30T12:43:34;10.50;99.90
23719;DHT22;43322;52.230;5.702;2024-01-30T12:46:01;10.50;99.90
23719;DHT22;43322;52.230;5.702;2024-01-30T12:48:29;11.10;99.90
23719;DHT22;43322;52.230;5.702;2024-01-30T12:50:56;10.50;99.90
23719;DHT22;43322;52.230;5.702;2024-01-30T12:53:24;10.40;99.90
23719;DHT22;43322;52.230;5.702;2024-01-30T12:55:51;10.30;99.90
23719;DHT22;43322;52.230;5.702;2024-01-30T12:58:19;10.40;99.90
23719;DHT22;43322;52.230;5.702;2024-01-30T13:00:46;10.90;99.90
23719;DHT22;43322;52.230;5.702;2024-01-30T13:03:13;10.10;99.90
23719;DHT22;43322;52.230;5.702;2024-01-30T13:05:40;10.10;99.90
23719;DHT22;43322;52.230;5.702;2024-01-30T13:08:07;10.00;99.90
23719;DHT22;43322;52.230;5.702;2024-01-30T13:10:35;10.10;99.90
23719;DHT22;43322;52.230;5.702;2024-01-30T13:13:02;10.00;99.90
23719;DHT22;43322;52.230;5.702;2024-01-30T13:15:29;10.00;99.90
23719;DHT22;43322;52.230;5.702;2024-01-30T13:17:56;10.00;99.90
23719;DHT22;43322;52.230;5.702;2024-01-30T13:20:23;10.00;99.90
23719;DHT22;43322;52.230;5.702;2024-01-30T13:22:49;10.00;99.90
23719;DHT22;43322;52.230;5.702;2024-01-30T13:25:16;10.10;99.90
23719;DHT22;43322;52.230;5.702;2024-01-30T13:27:44;10.30;99.90
23719;DHT22;43322;52.230;5.702;2024-01-30T13:30:12;10.10;99.90
23719;DHT22;43322;52.230;5.702;2024-01-30T13:32:39;10.00;99.90
23719;DHT22;43322;52.230;5.702;2024-01-30T13:35:09;9.80;99.90
23719;DHT22;43322;52.230;5.702;2024-01-30T13:37:36;10.20;99.90
23719;DHT22;43322;52.230;5.702;2024-01-30T13:40:05;9.80;99.90
23719;DHT22;43322;52.230;5.702;2024-01-30T13:42:34;9.80;99.90
23719;DHT22;43322;52.230;5.702;2024-01-30T13:45:02;9.70;99.90
23719;DHT22;43322;52.230;5.702;2024-01-30T13:47:29;9.60;99.90
23719;DHT22;43322;52.230;5.702;2024-01-30T13:49:56;9.60;99.90
23719;DHT22;43322;52.230;5.702;2024-01-30T13:52:23;9.60;99.90
23719;DHT22;43322;52.230;5.702;2024-01-30T13:54:50;9.50;1.00
23719;DHT22;43322;52.230;5.702;2024-01-30T13:57:16;9.60;99.90
23719;DHT22;43322;52.230;5.702;2024-01-30T13:59:43;9.60;99.90
23719;DHT22;43322;52.230;5.702;2024-01-30T14:02:11;9.50;1.00
23719;DHT22;43322;52.230;5.702;2024-01-30T14:04:38;9.40;1.00
23719;DHT22;43322;52.230;5.702;2024-01-30T14:07:05;9.40;1.00
23719;DHT22;43322;52.230;5.702;2024-01-30T14:09:32;9.30;1.00
23719;DHT22;43322;52.230;5.702;2024-01-30T14:11:59;9.30;1.00
23719;DHT22;43322;52.230;5.702;2024-01-30T14:14:26;9.30;1.00
23719;DHT22;43322;52.230;5.702;2024-01-30T14:16:53;9.30;1.00
23719;DHT22;43322;52.230;5.702;2024-01-30T14:19:21;9.30;1.00
23719;DHT22;43322;52.230;5.702;2024-01-30T14:21:48;9.20;1.00
23719;DHT22;43322;52.230;5.702;2024-01-30T14:24:15;9.30;1.00
23719;DHT22;43322;52.230;5.702;2024-01-30T14:26:42;9.20;1.00
23719;DHT22;43322;52.230;5.702;2024-01-30T14:29:09;9.20;1.00
23719;DHT22;43322;52.230;5.702;2024-01-30T14:31:36;9.10;1.00
23719;DHT22;43322;52.230;5.702;2024-01-30T14:34:03;9.10;1.00
23719;DHT22;43322;52.230;5.702;2024-01-30T14:36:31;9.10;1.00
23719;DHT22;43322;52.230;5.702;2024-01-30T14:38:58;9.10;1.00
23719;DHT22;43322;52.230;5.702;2024-01-30T14:41:25;9.00;1.00
23719;DHT22;43322;52.230;5.702;2024-01-30T14:43:52;8.90;1.00
23719;DHT22;43322;52.230;5.702;2024-01-30T14:46:18;8.90;1.00
23719;DHT22;43322;52.230;5.702;2024-01-30T14:48:45;8.80;1.00
23719;DHT22;43322;52.230;5.702;2024-01-30T14:51:12;8.90;1.00
23719;DHT22;43322;52.230;5.702;2024-01-30T14:53:40;8.90;1.00
23719;DHT22;43322;52.230;5.702;2024-01-30T14:56:07;8.90;1.00
23719;DHT22;43322;52.230;5.702;2024-01-30T14:58:34;8.90;1.00
23719;DHT22;43322;52.230;5.702;2024-01-30T15:01:03;8.80;1.00
23719;DHT22;43322;52.230;5.702;2024-01-30T15:03:30;8.70;1.00
23719;DHT22;43322;52.230;5.702;2024-01-30T15:05:57;8.70;1.00
23719;DHT22;43322;52.230;5.702;2024-01-30T15:08:24;8.60;1.00
23719;DHT22;43322;52.230;5.702;2024-01-30T15:10:52;8.60;1.00
23719;DHT22;43322;52.230;5.702;2024-01-30T15:13:19;8.60;1.00
23719;DHT22;43322;52.230;5.702;2024-01-30T15:15:46;8.60;1.00
23719;DHT22;43322;52.230;5.702;2024-01-30T15:18:12;8.60;1.00
23719;DHT22;43322;52.230;5.702;2024-01-30T15:20:39;8.50;1.00
23719;DHT22;43322;52.230;5.702;2024-01-30T15:23:06;8.50;1.00
23719;DHT22;43322;52.230;5.702;2024-01-30T15:25:33;8.40;26.00
23719;DHT22;43322;52.230;5.702;2024-01-30T15:28:01;8.30;38.40
23719;DHT22;43322;52.230;5.702;2024-01-30T15:30:28;8.30;67.60
23719;DHT22;43322;52.230;5.702;2024-01-30T15:32:55;8.30;81.70
23719;DHT22;43322;52.230;5.702;2024-01-30T15:35:21;8.30;99.90
23719;DHT22;43322;52.230;5.702;2024-01-30T15:37:48;8.30;99.90
23719;DHT22;43322;52.230;5.702;2024-01-30T15:40:15;8.30;99.90
23719;DHT22;43322;52.230;5.702;2024-01-30T15:42:42;8.30;99.90
23719;DHT22;43322;52.230;5.702;2024-01-30T15:45:10;8.30;99.90
23719;DHT22;43322;52.230;5.702;2024-01-30T15:47:37;8.20;99.90